00:36
Airports
History
Links
Donate
Help keep this website running!
PayPal
Bitcoin
Information on this page is community maintained and may be outdated or inaccurate and is intended for reference only or PC simulator navigating.
Always use approved charts for navigating.
SDZH
FAZENDA SANTA HELENA
FAZENDA SANTA HELENA (SDZH)
Pindamonhangaba, São Paulo, Brazil
(U)
Lat/Lng:22° 53' 25.58" S / 45° 29' 35.77" W
-22.890439 / -45.49327
Elevation:1804'ft 550mMSL
ID / ICAO:SDZH
Runways:1
Longest:(04-22) 1,400.1m 4,594ft Asphalt
Distance To
Airport ID:
Nearby WeatherUpdated 07-24-17 23:00 GMT
Nearby weather at SBGW, GUARATINGUETA located 19.6 nautical miles from SDZH
Altimeter: 30.33
Visibility: 5.0 statute miles
Wind: 0 knots (000°)
Temp: 15°c 59°f
Humidity: 77.0%

METAR: SBGW 242300Z 00000KT 8000 NSC 15/11 Q1027

(Powered by phpweather)
Runway 04 / 22
Dimensions:1400.1 x 18m 4594' x 59'ft
Surface:Asphalt
Edge Lights:Low intensity
Runway 04 [A]Runway 22 [B]
Heading:019°TH 199°TH
Lat:
Lng:
22° 53' 47.05"S
45° 29' 43.81"W
22° 53' 4.11"S
45° 29' 27.73"W
User Notes and Comments
Google Map
Nearby Airports
4 Pindamonhangaba 5.4 NM
SDPD SE 133°
4 Fazenda Maristela 8.2 NM
SDMA WSW 237°
(C) BASE DE AVIACAO DE TAUBATE 10.4 NM
SBTA S 187°
(C) GUARATINGUETA 19.6 NM
SBGW (WX) ENE 69°
4 Fazenda Centro de Voo a Vela Ipua 20.8 NM
SDIP WSW 239°
4 Helibras 31.8 NM
SIYS N
(C) Sao Jose Dos Campos 33.1 NM
SBSJ (WX) SW 225°
VFR Chart
Flight Planning at SkyVector.com